Time;durP1;ratioP1;P1;durP2;ratioP2;P2;SDS_P1;SDS_P2;PMS_P1;PMS_P2;Temp;Humidity;BMP_temperature;BMP_pressure;BME280_temperature;BME280_humidity;BME280_pressure;Samples;Min_cycle;Max_cycle;Signal;HPM_P1;HPM_P2
2021/06/08 00:00:11;;;;;;;23.85;18.95;;;;;;;17.14;66.76;101979.13;5038927;28;20028;-80
2021/06/08 00:02:37;;;;;;;20.70;16.30;;;;;;;17.21;66.11;101980.25;5058062;28;20043;-80
2021/06/08 00:05:03;;;;;;;21.77;18.05;;;;;;;17.12;66.40;101975.69;5039155;28;20033;-80
2021/06/08 00:07:29;;;;;;;20.30;18.13;;;;;;;16.96;66.64;101973.59;5055840;28;20032;-80
2021/06/08 00:09:54;;;;;;;23.48;19.27;;;;;;;17.02;66.24;101968.56;5036465;28;20407;-80
2021/06/08 00:12:20;;;;;;;21.95;17.92;;;;;;;16.92;66.75;101966.72;5053292;28;20457;-80
2021/06/08 00:14:45;;;;;;;20.15;16.73;;;;;;;16.95;66.67;101971.03;5054189;28;20040;-80
2021/06/08 00:17:12;;;;;;;19.27;17.17;;;;;;;16.89;66.91;101974.31;5053533;28;20104;-81
2021/06/08 00:19:37;;;;;;;26.13;21.05;;;;;;;16.71;67.51;101975.06;5053125;28;20060;-81
2021/06/08 00:22:03;;;;;;;23.27;18.55;;;;;;;16.64;67.53;101973.06;5033877;28;20143;-80
2021/06/08 00:24:28;;;;;;;23.70;18.30;;;;;;;16.80;66.74;101975.19;5034015;28;20036;-81
2021/06/08 00:26:54;;;;;;;24.73;18.08;;;;;;;16.84;66.77;101968.50;5051759;28;20041;-80
2021/06/08 00:29:19;;;;;;;18.00;15.95;;;;;;;16.77;66.91;101965.47;5051927;28;20025;-80
2021/06/08 00:31:45;;;;;;;23.23;19.90;;;;;;;16.62;67.26;101967.78;5034964;28;20061;-81
2021/06/08 00:34:10;;;;;;;19.85;17.45;;;;;;;16.77;66.54;101968.19;5057770;28;20031;-80
2021/06/08 00:36:35;;;;;;;24.63;19.52;;;;;;;16.52;67.04;101964.22;5055623;28;20029;-81
2021/06/08 00:39:01;;;;;;;23.80;18.63;;;;;;;16.60;66.61;101958.91;5052688;28;20021;-80
2021/06/08 00:41:34;;;;;;;22.27;17.25;;;;;;;16.67;66.39;101962.75;5053277;28;20032;-81
2021/06/08 00:44:02;;;;;;;23.60;19.23;;;;;;;16.67;66.45;101961.91;5053067;28;20059;-81
2021/06/08 00:46:29;;;;;;;23.27;18.00;;;;;;;16.65;66.51;101966.63;5051120;28;20511;-81
2021/06/08 00:48:54;;;;;;;32.22;20.05;;;;;;;16.64;66.10;101965.75;5033829;28;20045;-80
2021/06/08 00:51:20;;;;;;;23.05;19.20;;;;;;;16.69;65.84;101973.50;5033239;28;20083;-81
2021/06/08 00:53:45;;;;;;;20.58;18.35;;;;;;;16.76;65.49;101966.50;5033627;28;20031;-80
2021/06/08 00:56:11;;;;;;;21.75;18.27;;;;;;;16.77;65.21;101965.47;5032985;28;20370;-81
2021/06/08 00:58:36;;;;;;;22.60;19.33;;;;;;;16.38;66.63;101964.66;5051888;28;20060;-81
2021/06/08 01:01:02;;;;;;;26.05;20.13;;;;;;;16.38;67.04;101967.38;5058798;28;20029;-80
2021/06/08 01:03:27;;;;;;;26.40;20.27;;;;;;;16.49;66.68;101968.06;5056803;28;20049;-81
2021/06/08 01:05:55;;;;;;;23.20;20.23;;;;;;;16.37;66.83;101969.22;5055751;28;20349;-81
2021/06/08 01:08:20;;;;;;;24.15;18.85;;;;;;;16.22;67.59;101970.66;5036159;28;20206;-81
2021/06/08 01:10:46;;;;;;;26.60;19.70;;;;;;;16.22;67.16;101966.09;5035234;28;20374;-81
2021/06/08 01:13:11;;;;;;;23.25;19.42;;;;;;;16.11;67.13;101970.81;5034326;28;20444;-81
2021/06/08 01:15:36;;;;;;;21.67;18.08;;;;;;;16.16;66.93;101966.66;5052486;28;20111;-81
2021/06/08 01:18:02;;;;;;;24.85;20.10;;;;;;;16.20;66.49;101969.94;5051961;28;20028;-81
2021/06/08 01:20:28;;;;;;;22.30;19.90;;;;;;;16.13;67.11;101972.38;5051558;28;20033;-81
2021/06/08 01:22:53;;;;;;;27.85;20.92;;;;;;;16.15;67.08;101967.66;5032668;28;20063;-80
2021/06/08 01:25:19;;;;;;;28.45;19.20;;;;;;;15.97;67.44;101970.19;5032574;28;20064;-81
2021/06/08 01:27:44;;;;;;;19.58;17.35;;;;;;;16.14;66.89;101970.53;5032349;28;20468;-80
2021/06/08 01:30:10;;;;;;;24.75;18.92;;;;;;;16.00;67.11;101972.63;5050478;28;20033;-80
2021/06/08 01:32:40;;;;;;;23.55;18.35;;;;;;;16.08;66.98;101983.66;5038285;28;20041;-81
2021/06/08 01:35:06;;;;;;;22.33;18.52;;;;;;;16.09;66.22;101976.34;5056015;28;20084;-81
2021/06/08 01:37:33;;;;;;;23.27;19.90;;;;;;;15.99;66.71;101976.34;5036405;28;20029;-81
2021/06/08 01:39:58;;;;;;;31.45;20.08;;;;;;;15.93;67.04;101981.50;5052791;28;20039;-81
2021/06/08 01:42:24;;;;;;;29.98;19.80;;;;;;;16.04;66.56;101981.38;5034217;28;20546;-81
2021/06/08 01:44:50;;;;;;;25.33;17.92;;;;;;;15.94;66.70;101980.47;5051654;28;20555;-81
2021/06/08 01:47:15;;;;;;;32.50;22.30;;;;;;;15.87;67.25;101976.63;5032537;28;20426;-80
2021/06/08 01:49:41;;;;;;;27.85;20.48;;;;;;;15.90;66.79;101971.78;5033315;28;20069;-81
2021/06/08 01:52:14;;;;;;;26.38;20.17;;;;;;;16.01;66.30;101973.53;5050909;28;20538;-81
2021/06/08 01:55:15;;;;;;;21.10;18.40;;;;;;;15.91;66.67;101983.47;5050343;28;20561;-81
2021/06/08 01:57:53;;;;;;;26.42;19.67;;;;;;;15.82;66.90;101977.91;5045700;28;20051;-81
2021/06/08 02:00:45;;;;;;;24.77;19.42;;;;;;;15.76;67.02;101974.88;5049889;28;20028;-80
2021/06/08 02:03:23;;;;;;;23.35;19.98;;;;;;;15.81;66.57;101980.75;5051393;28;20033;-81
2021/06/08 02:05:57;;;;;;;24.75;20.05;;;;;;;15.71;66.90;101969.88;5038278;28;20040;-81
2021/06/08 02:09:01;;;;;;;28.67;22.45;;;;;;;15.70;67.17;101978.16;5054720;28;20458;-81
2021/06/08 02:11:42;;;;;;;23.58;19.35;;;;;;;15.71;66.99;101971.75;5022206;28;20037;-81
2021/06/08 02:14:16;;;;;;;32.20;22.73;;;;;;;15.58;67.40;101972.81;5034468;28;20029;-81
2021/06/08 02:17:20;;;;;;;23.15;19.23;;;;;;;15.55;66.99;101981.22;5051633;28;20268;-80
2021/06/08 02:19:48;;;;;;;24.70;19.08;;;;;;;15.60;66.64;101978.94;5018937;28;20548;-80
2021/06/08 02:22:14;;;;;;;30.00;20.27;;;;;;;15.67;66.51;101975.69;5032074;28;20033;-80
2021/06/08 02:24:43;;;;;;;22.05;19.27;;;;;;;15.60;66.68;101975.38;5050058;28;20392;-80
2021/06/08 02:27:12;;;;;;;27.48;20.42;;;;;;;15.71;66.10;101971.75;5031346;28;20064;-81
2021/06/08 02:29:38;;;;;;;28.92;21.15;;;;;;;15.58;66.64;101975.53;5049453;28;20102;-81
2021/06/08 02:32:07;;;;;;;29.90;21.33;;;;;;;15.58;66.46;101977.38;5049361;28;20112;-81
2021/06/08 02:34:33;;;;;;;25.30;19.45;;;;;;;15.71;65.86;101977.16;5056367;28;20059;-81
2021/06/08 02:36:59;;;;;;;23.58;19.65;;;;;;;15.69;65.56;101976.44;5036549;28;20052;-82
2021/06/08 02:39:27;;;;;;;30.75;23.95;;;;;;;15.48;66.43;101979.19;5053404;28;20512;-81
2021/06/08 02:41:53;;;;;;;23.23;18.83;;;;;;;15.52;66.44;101977.91;5034814;28;20029;-81
2021/06/08 02:44:23;;;;;;;24.95;19.65;;;;;;;15.54;65.85;101973.22;5033319;28;20036;-81
2021/06/08 02:46:50;;;;;;;26.00;19.98;;;;;;;15.56;65.97;101973.94;5051036;28;20111;-81
2021/06/08 02:49:20;;;;;;;22.80;18.48;;;;;;;15.34;66.75;101973.16;5031772;28;20481;-81
2021/06/08 02:51:46;;;;;;;25.88;16.95;;;;;;;15.40;66.13;101980.75;5049961;28;20041;-80
2021/06/08 02:54:13;;;;;;;24.02;19.40;;;;;;;15.36;66.40;101976.56;5031073;28;20083;-80
2021/06/08 02:56:40;;;;;;;22.92;17.83;;;;;;;15.39;66.78;101979.00;5049391;28;20025;-80
2021/06/08 02:59:07;;;;;;;23.08;18.02;;;;;;;15.46;66.21;101982.06;5030741;28;20082;-80
2021/06/08 03:01:34;;;;;;;20.35;18.15;;;;;;;15.52;65.96;101984.22;5055020;28;20077;-81
2021/06/08 03:04:01;;;;;;;24.88;18.15;;;;;;;15.38;66.23;101982.72;5054360;28;20450;-81
2021/06/08 03:06:33;;;;;;;20.67;17.73;;;;;;;15.47;65.95;101985.63;5034219;28;20473;-81
2021/06/08 03:09:03;;;;;;;21.95;17.02;;;;;;;15.41;65.91;101978.88;5052705;28;20094;-81
2021/06/08 03:11:36;;;;;;;20.90;16.75;;;;;;;15.52;65.09;101980.63;5050958;28;20111;-81
2021/06/08 03:14:02;;;;;;;19.92;16.58;;;;;;;15.54;64.95;101975.94;5050079;28;20113;-81
2021/06/08 03:16:30;;;;;;;18.20;16.23;;;;;;;15.31;65.71;101978.00;5049632;28;20057;-81
2021/06/08 03:19:00;;;;;;;23.23;18.38;;;;;;;15.45;65.22;101983.03;5030963;28;20187;-80
2021/06/08 03:21:34;;;;;;;23.38;18.17;;;;;;;15.46;65.04;101984.78;5030325;28;20108;-81
2021/06/08 03:24:02;;;;;;;22.30;18.17;;;;;;;15.49;64.89;101987.22;5049425;28;20043;-80
2021/06/08 03:26:31;;;;;;;23.60;18.58;;;;;;;15.57;64.47;101987.34;5048861;28;20048;-80
2021/06/08 03:29:00;;;;;;;22.55;17.23;;;;;;;15.58;64.25;101986.38;5034889;28;20029;-81
2021/06/08 03:31:26;;;;;;;20.60;15.52;;;;;;;15.56;64.50;101982.09;5034743;28;20033;-81
2021/06/08 03:33:55;;;;;;;24.20;19.73;;;;;;;15.57;64.58;101981.94;5052912;28;20116;-80
2021/06/08 03:36:21;;;;;;;23.38;18.83;;;;;;;15.45;65.39;101990.31;5050511;28;20028;-81
2021/06/08 03:38:48;;;;;;;26.75;21.17;;;;;;;15.38;65.55;101990.00;5051082;28;20078;-80
2021/06/08 03:41:15;;;;;;;19.63;16.08;;;;;;;15.22;66.31;101992.38;5031714;28;20028;-80
2021/06/08 03:43:41;;;;;;;21.45;16.88;;;;;;;15.05;66.41;101988.41;5050576;28;20040;-80
2021/06/08 03:46:06;;;;;;;24.05;17.95;;;;;;;15.04;66.67;101993.00;5052823;28;20036;-80
2021/06/08 03:48:32;;;;;;;44.42;19.92;;;;;;;14.99;66.83;101987.09;5053979;28;20024;-80
2021/06/08 03:50:58;;;;;;;55.38;20.40;;;;;;;14.93;67.30;101987.63;5054334;28;20044;-80
2021/06/08 03:53:25;;;;;;;68.03;21.02;;;;;;;14.92;67.51;101991.34;5034956;28;20419;-80
2021/06/08 03:55:51;;;;;;;41.60;17.55;;;;;;;15.19;66.65;101990.78;5053068;28;20029;-80
2021/06/08 03:58:19;;;;;;;43.55;17.15;;;;;;;15.22;67.15;101992.38;5052321;28;20035;-80
2021/06/08 04:00:47;;;;;;;156.43;22.75;;;;;;;15.24;66.53;101996.63;5051747;28;20055;-81
2021/06/08 04:03:17;;;;;;;32.63;16.50;;;;;;;15.28;66.38;102002.66;5033981;28;20031;-81
2021/06/08 04:05:42;;;;;;;36.85;18.05;;;;;;;15.22;66.42;101997.78;5034086;28;20374;-80
2021/06/08 04:08:11;;;;;;;19.23;15.38;;;;;;;15.23;66.21;101999.50;5033904;28;20057;-78
2021/06/08 04:10:38;;;;;;;21.25;17.00;;;;;;;15.18;66.04;102002.59;5055262;28;20044;-80
2021/06/08 04:13:05;;;;;;;17.50;15.68;;;;;;;15.19;65.81;101998.06;5058834;28;20047;-79
2021/06/08 04:15:32;;;;;;;15.00;13.52;;;;;;;15.21;65.69;101998.75;5056995;28;20036;-79
2021/06/08 04:17:58;;;;;;;17.55;15.68;;;;;;;15.21;65.43;102004.19;5055874;28;20025;-79
2021/06/08 04:20:28;;;;;;;17.05;15.23;;;;;;;15.14;65.09;101996.59;5036654;28;20032;-79
2021/06/08 04:22:56;;;;;;;15.95;14.23;;;;;;;15.24;64.85;101999.34;5035575;28;20037;-79
2021/06/08 04:25:23;;;;;;;27.65;16.77;;;;;;;15.26;64.98;101999.22;5054111;28;20025;-79
2021/06/08 04:27:49;;;;;;;16.83;14.80;;;;;;;15.35;64.94;102011.97;5022483;28;20025;-79
2021/06/08 04:30:15;;;;;;;16.25;14.50;;;;;;;15.19;65.20;101995.34;5037270;28;20075;-79
2021/06/08 04:32:42;;;;;;;15.45;13.85;;;;;;;15.16;65.20;102004.59;5032719;28;20025;-79
2021/06/08 04:35:08;;;;;;;14.70;13.18;;;;;;;15.20;65.08;102000.63;5043373;28;20378;-79
2021/06/08 04:37:34;;;;;;;14.25;12.85;;;;;;;14.99;65.51;102000.66;5048777;28;20025;-79
2021/06/08 04:40:00;;;;;;;14.20;12.80;;;;;;;14.99;65.73;101999.78;5048061;28;20031;-79
2021/06/08 04:42:26;;;;;;;18.65;13.32;;;;;;;15.03;65.97;102004.84;5047349;28;20041;-79
2021/06/08 04:44:52;;;;;;;15.45;13.82;;;;;;;14.96;66.28;102008.19;5047573;28;20032;-79
2021/06/08 04:47:22;;;;;;;12.82;11.60;;;;;;;15.09;65.21;102011.53;5027030;28;20048;-79
2021/06/08 04:49:49;;;;;;;13.25;11.95;;;;;;;15.20;64.53;102007.91;5047835;28;20048;-79
2021/06/08 04:52:14;;;;;;;14.20;12.70;;;;;;;15.25;64.39;102016.50;5047438;28;20029;-79
2021/06/08 04:54:41;;;;;;;14.95;13.32;;;;;;;15.02;64.46;102018.50;5048695;28;20051;-79
2021/06/08 04:57:12;;;;;;;13.35;11.82;;;;;;;14.94;65.32;102011.91;5029491;28;20186;-79
2021/06/08 05:00:03;;;;;;;12.52;11.32;;;;;;;15.01;64.88;102006.81;5031685;28;20033;-78
2021/06/08 05:02:34;;;;;;;18.10;12.57;;;;;;;15.06;64.28;102015.41;4991664;28;20041;-79
2021/06/08 05:05:02;;;;;;;;;;;;;;;14.97;64.22;102016.19;5047891;28;20124;-79
2021/06/08 05:07:29;;;;;;;16.30;13.48;;;;;;;14.93;64.19;102006.59;5047118;28;19920;-79
2021/06/08 05:09:57;;;;;;;13.10;11.80;;;;;;;15.02;63.86;102007.66;5047421;28;20500;-79
2021/06/08 05:12:23;;;;;;;17.42;13.98;;;;;;;14.87;64.44;102015.25;5038241;28;20035;-79
2021/06/08 05:14:51;;;;;;;28.00;15.90;;;;;;;14.85;64.11;102018.13;5027807;28;20821;-79
2021/06/08 05:17:19;;;;;;;17.55;12.38;;;;;;;14.85;65.02;102009.13;5029054;28;20400;-79
2021/06/08 05:19:47;;;;;;;12.48;11.27;;;;;;;14.97;64.53;102018.91;5047403;28;20496;-79
2021/06/08 05:22:17;;;;;;;12.35;11.13;;;;;;;15.00;64.13;102020.47;5027817;28;20068;-78
2021/06/08 05:24:47;;;;;;;14.27;12.88;;;;;;;14.93;64.09;102020.16;5025758;28;20025;-79
2021/06/08 05:27:13;;;;;;;13.75;12.35;;;;;;;15.06;64.21;102023.53;5028488;28;20025;-78
2021/06/08 05:29:39;;;;;;;13.73;12.38;;;;;;;14.84;63.75;102027.22;5029859;28;20401;-79
2021/06/08 05:32:04;;;;;;;12.07;10.90;;;;;;;15.02;63.68;102018.50;5046741;28;20029;-78
2021/06/08 05:34:29;;;;;;;11.50;10.35;;;;;;;15.31;63.30;102018.66;5046682;28;20431;-78
2021/06/08 05:36:55;;;;;;;11.55;10.48;;;;;;;15.25;62.90;102019.22;5046528;28;20051;-79
2021/06/08 05:39:20;;;;;;;11.15;10.07;;;;;;;15.22;62.51;102011.34;5046854;28;20036;-79
2021/06/08 05:41:51;;;;;;;11.18;9.63;;;;;;;15.22;62.29;102009.50;5028591;28;20025;-78
2021/06/08 05:44:16;;;;;;;9.85;8.95;;;;;;;14.94;62.63;102013.75;5026766;28;20468;-78
2021/06/08 05:46:42;;;;;;;10.60;9.60;;;;;;;14.75;63.48;102013.59;5029555;28;20060;-78
2021/06/08 05:49:08;;;;;;;11.55;10.40;;;;;;;14.78;63.52;102021.47;5045275;28;20400;-78
2021/06/08 05:51:36;;;;;;;9.48;8.57;;;;;;;14.94;62.52;102008.34;5046628;28;20489;-78
2021/06/08 05:54:04;;;;;;;12.00;10.95;;;;;;;14.79;63.29;102015.94;5046633;28;20141;-78
2021/06/08 05:56:32;;;;;;;13.15;10.05;;;;;;;14.84;62.93;102019.09;5025477;28;20575;-79
2021/06/08 05:58:58;;;;;;;11.15;10.15;;;;;;;14.99;62.94;102008.78;5042233;28;20484;-78
2021/06/08 06:01:26;;;;;;;11.82;10.73;;;;;;;14.89;62.97;102013.28;5047480;28;20021;-79
2021/06/08 06:03:51;;;;;;;10.90;9.88;;;;;;;14.96;63.21;102016.31;5025284;28;20033;-79
2021/06/08 06:06:17;;;;;;;11.10;10.05;;;;;;;15.04;63.05;102016.53;5028140;28;20029;-79
2021/06/08 06:08:43;;;;;;;14.02;12.35;;;;;;;15.09;63.04;102015.13;5049980;28;20039;-79
2021/06/08 06:11:09;;;;;;;13.43;12.02;;;;;;;15.13;62.65;102010.28;5050534;28;20029;-79
2021/06/08 06:13:48;;;;;;;11.05;10.07;;;;;;;15.16;62.77;102010.88;5029258;28;20033;-79
2021/06/08 06:16:17;;;;;;;10.40;9.40;;;;;;;15.30;62.14;102015.06;5040870;28;20072;-79
2021/06/08 06:18:43;;;;;;;11.38;9.90;;;;;;;15.20;62.71;102016.03;5033665;28;20036;-79
2021/06/08 06:21:09;;;;;;;12.15;10.40;;;;;;;15.17;62.58;102017.16;5050660;28;20397;-80
2021/06/08 06:23:35;;;;;;;11.30;10.15;;;;;;;15.12;63.43;102019.41;5050643;28;20055;-79
2021/06/08 06:26:01;;;;;;;10.52;9.55;;;;;;;15.28;62.63;102011.66;5050066;28;20068;-79
2021/06/08 06:28:26;;;;;;;12.07;10.98;;;;;;;15.25;62.43;102016.50;5027930;28;20025;-79
2021/06/08 06:30:53;;;;;;;10.68;9.68;;;;;;;15.49;62.05;102010.72;5031644;28;20032;-79
2021/06/08 06:33:23;;;;;;;11.25;10.15;;;;;;;15.57;62.17;102008.19;5029324;28;20033;-79
2021/06/08 06:35:50;;;;;;;10.60;9.70;;;;;;;15.57;61.45;102014.47;5049944;28;20056;-79
2021/06/08 06:38:18;;;;;;;12.02;10.82;;;;;;;15.45;61.67;102014.72;5050899;28;20051;-79
2021/06/08 06:40:45;;;;;;;13.00;9.90;;;;;;;15.57;61.54;102014.47;5049462;28;20040;-79
2021/06/08 06:43:17;;;;;;;9.77;8.88;;;;;;;15.72;60.79;102016.84;5049602;28;20517;-79
2021/06/08 06:45:46;;;;;;;9.65;8.68;;;;;;;15.70;60.75;102019.72;5031517;28;20025;-79
2021/06/08 06:48:15;;;;;;;10.60;9.65;;;;;;;15.78;60.50;102028.00;5049599;28;20075;-79
2021/06/08 06:50:41;;;;;;;11.48;9.38;;;;;;;15.87;60.43;102026.31;5019088;28;20036;-79
2021/06/08 06:53:08;;;;;;;10.38;9.38;;;;;;;15.92;60.44;102031.34;5027674;28;20037;-79
2021/06/08 06:55:37;;;;;;;8.57;7.72;;;;;;;15.89;60.48;102027.03;5031777;28;20093;-79
2021/06/08 06:58:08;;;;;;;11.15;9.20;;;;;;;16.01;60.35;102034.06;5048394;28;20033;-79
2021/06/08 07:00:43;;;;;;;9.52;8.73;;;;;;;16.06;60.71;102030.91;5032135;28;20039;-79
2021/06/08 07:03:13;;;;;;;9.88;8.90;;;;;;;16.16;60.22;102036.34;5052813;28;20045;-78
2021/06/08 07:05:43;;;;;;;10.02;8.98;;;;;;;16.17;60.49;102040.81;5051074;28;20032;-80
2021/06/08 07:08:09;;;;;;;10.98;8.50;;;;;;;16.23;60.23;102038.38;5030840;28;20488;-79
2021/06/08 07:10:35;;;;;;;9.57;8.68;;;;;;;16.27;60.43;102041.66;5049266;28;20487;-79
2021/06/08 07:13:06;;;;;;;11.55;8.82;;;;;;;16.31;60.04;102038.53;5048943;28;20061;-79
2021/06/08 07:15:32;;;;;;;9.70;8.43;;;;;;;16.38;60.04;102036.13;5045786;28;20119;-79
2021/06/08 07:18:04;;;;;;;9.27;8.38;;;;;;;16.39;59.45;102036.97;5046438;28;20033;-79
2021/06/08 07:20:31;;;;;;;9.90;8.30;;;;;;;16.43;60.15;102036.53;5032855;28;20063;-79
2021/06/08 07:22:59;;;;;;;7.80;6.95;;;;;;;16.44;59.32;102031.97;5052178;28;20069;-79
2021/06/08 07:25:26;;;;;;;8.05;7.25;;;;;;;16.52;58.76;102042.97;5051504;28;20029;-79
2021/06/08 07:27:54;;;;;;;7.22;6.53;;;;;;;16.64;58.85;102041.81;5050116;28;20057;-79
2021/06/08 07:30:21;;;;;;;12.23;6.10;;;;;;;16.61;57.32;102044.81;5051341;28;20039;-79
2021/06/08 07:33:08;;;;;;;7.90;7.10;;;;;;;16.73;57.91;102040.94;5029577;28;20046;-79
2021/06/08 07:36:03;;;;;;;7.78;6.47;;;;;;;16.79;57.93;102041.41;5017372;28;20036;-79
2021/06/08 07:38:34;;;;;;;8.00;6.32;;;;;;;16.84;57.85;102045.41;5033960;28;20084;-79
2021/06/08 07:41:05;;;;;;;;;;;;;;;16.95;57.91;102050.69;5053020;28;20033;-79
2021/06/08 07:43:38;;;;;;;6.43;5.82;;;;;;;16.96;57.53;102041.53;5051037;28;20376;-80
2021/06/08 07:46:15;;;;;;;6.57;5.97;;;;;;;17.03;57.49;102030.09;5032559;28;20041;-79
2021/06/08 07:48:44;;;;;;;6.13;5.60;;;;;;;17.03;57.26;102032.81;5032356;28;20031;-79
2021/06/08 07:51:11;;;;;;;8.02;6.05;;;;;;;17.11;57.34;102041.94;5051016;28;20028;-79
2021/06/08 07:53:38;;;;;;;10.05;6.30;;;;;;;17.20;57.39;102041.06;5033589;28;20112;-80
2021/06/08 07:56:09;;;;;;;6.00;5.40;;;;;;;17.21;57.48;102039.19;5050392;28;20037;-79
2021/06/08 07:58:35;;;;;;;6.50;5.85;;;;;;;17.23;58.08;102040.78;5050946;28;20465;-79
2021/06/08 08:01:00;;;;;;;6.25;5.68;;;;;;;17.20;57.54;102042.91;5029999;28;20037;-79
2021/06/08 08:03:28;;;;;;;8.75;5.20;;;;;;;17.34;56.56;102039.72;5049924;28;20083;-79
2021/06/08 08:06:02;;;;;;;6.30;5.70;;;;;;;17.45;56.84;102034.09;5031959;28;20029;-79
2021/06/08 08:08:30;;;;;;;12.90;6.95;;;;;;;17.49;56.32;102041.97;5029326;28;20030;-78
2021/06/08 08:10:57;;;;;;;7.68;5.57;;;;;;;17.54;56.49;102034.19;5045862;28;20532;-79
2021/06/08 08:13:27;;;;;;;5.65;4.85;;;;;;;17.61;56.78;102030.75;5051978;28;20474;-79
2021/06/08 08:15:53;;;;;;;7.90;5.38;;;;;;;17.71;57.13;102030.69;5051356;28;20033;-79
2021/06/08 08:18:19;;;;;;;8.32;5.03;;;;;;;17.72;56.42;102031.53;5048275;28;20107;-78
2021/06/08 08:20:51;;;;;;;15.82;5.53;;;;;;;17.79;55.89;102033.56;5049268;28;20098;-79
2021/06/08 08:23:17;;;;;;;7.97;4.70;;;;;;;17.90;55.69;102036.03;5047847;28;20482;-79
2021/06/08 08:25:43;;;;;;;5.47;4.97;;;;;;;17.96;55.79;102033.72;5049011;28;20129;-79
2021/06/08 08:28:09;;;;;;;5.88;5.22;;;;;;;17.98;56.70;102026.28;5030821;28;20078;-79
2021/06/08 08:30:35;;;;;;;6.97;4.65;;;;;;;17.98;56.58;102026.28;5027056;28;20382;-78
2021/06/08 08:33:00;;;;;;;5.13;4.63;;;;;;;18.07;55.53;102028.09;5042917;28;20056;-79
2021/06/08 08:35:26;;;;;;;4.90;4.45;;;;;;;18.10;55.47;102027.78;5046699;28;20037;-79
2021/06/08 08:37:53;;;;;;;7.50;4.72;;;;;;;18.17;55.05;102031.59;5045715;28;20043;-79
2021/06/08 08:40:19;;;;;;;9.38;4.28;;;;;;;18.16;55.00;102034.47;5029290;28;20029;-79
2021/06/08 08:42:45;;;;;;;6.63;4.93;;;;;;;18.23;55.30;102030.97;5030137;28;20036;-79
2021/06/08 08:45:13;;;;;;;6.55;4.70;;;;;;;18.27;54.38;102029.63;5048663;28;20174;-79
2021/06/08 08:47:40;;;;;;;5.95;4.43;;;;;;;18.33;54.32;102034.50;5047892;28;20151;-79
2021/06/08 08:50:06;;;;;;;5.00;4.30;;;;;;;18.40;53.90;102031.16;5026567;28;20393;-79
2021/06/08 08:52:34;;;;;;;4.85;4.22;;;;;;;18.41;54.10;102016.50;5047169;28;20414;-79
2021/06/08 08:55:01;;;;;;;4.55;3.97;;;;;;;18.38;53.25;102025.84;5047815;28;20032;-78
2021/06/08 08:57:27;;;;;;;4.93;4.00;;;;;;;18.45;51.95;102034.25;5047492;28;20558;-79
2021/06/08 08:59:59;;;;;;;4.63;3.40;;;;;;;18.50;52.39;102026.47;5028513;28;20116;-79
2021/06/08 09:02:26;;;;;;;6.53;3.33;;;;;;;18.53;51.72;102021.56;5048289;28;20484;-79
2021/06/08 09:04:52;;;;;;;3.85;3.00;;;;;;;18.60;52.38;102016.34;5046908;28;20076;-79
2021/06/08 09:07:19;;;;;;;3.47;3.10;;;;;;;18.62;50.24;102019.75;5026847;28;20532;-79
2021/06/08 09:09:47;;;;;;;4.40;2.80;;;;;;;18.69;52.34;102011.81;5027161;28;20469;-79
2021/06/08 09:12:13;;;;;;;2.85;2.50;;;;;;;18.69;51.10;102011.81;5028379;28;20032;-79
2021/06/08 09:14:41;;;;;;;3.65;2.80;;;;;;;18.73;50.36;102021.41;5044923;28;20029;-79
2021/06/08 09:17:07;;;;;;;4.85;2.33;;;;;;;18.76;50.08;102019.25;5028655;28;20033;-79
2021/06/08 09:19:34;;;;;;;2.55;2.35;;;;;;;18.85;49.23;102016.56;5029046;28;20442;-79
2021/06/08 09:22:01;;;;;;;3.42;2.25;;;;;;;18.89;50.43;102016.09;5046044;28;20500;-79
2021/06/08 09:24:29;;;;;;;2.70;2.50;;;;;;;18.92;49.23;102018.50;5027708;28;20029;-79
2021/06/08 09:26:56;;;;;;;5.10;2.40;;;;;;;18.96;49.25;102010.84;5044952;28;20029;-79
2021/06/08 09:29:28;;;;;;;3.17;2.05;;;;;;;18.92;48.12;102017.66;5046014;28;20722;-79
2021/06/08 09:32:18;;;;;;;4.22;2.22;;;;;;;18.98;49.00;102008.84;5028936;28;20374;-78
2021/06/08 09:34:51;;;;;;;6.97;1.90;;;;;;;19.10;47.70;102006.66;5047377;28;20052;-79
2021/06/08 09:37:39;;;;;;;5.32;2.00;;;;;;;19.16;48.01;102006.91;5047162;28;20457;-79
2021/06/08 09:40:16;;;;;;;3.08;1.80;;;;;;;19.13;47.14;102009.97;5047392;28;20025;-79
2021/06/08 09:42:43;;;;;;;3.22;1.92;;;;;;;19.16;47.14;102008.75;5046587;28;20033;-79
2021/06/08 09:45:23;;;;;;;1.63;1.52;;;;;;;19.20;47.69;102000.09;5046330;28;20412;-78
2021/06/08 09:48:01;;;;;;;2.30;1.70;;;;;;;19.22;46.52;102006.25;5025909;28;20033;-79
2021/06/08 09:50:30;;;;;;;3.35;1.70;;;;;;;19.41;46.05;102001.59;5025048;28;20056;-79
2021/06/08 09:53:15;;;;;;;2.67;1.80;;;;;;;19.42;45.47;102001.41;5044667;28;20420;-79
2021/06/08 09:55:51;;;;;;;4.38;1.80;;;;;;;19.42;46.30;102006.00;5024458;28;20116;-79
2021/06/08 09:58:17;;;;;;;1.80;1.58;;;;;;;19.46;46.63;102001.94;5018692;28;20029;-79
2021/06/08 10:00:42;;;;;;;4.45;1.92;;;;;;;19.40;45.66;101999.84;5021011;28;20032;-79
2021/06/08 10:03:07;;;;;;;1.73;1.63;;;;;;;19.42;47.15;102004.13;5046042;28;20036;-79
2021/06/08 10:05:33;;;;;;;2.83;1.50;;;;;;;19.45;45.59;101998.34;5046725;28;20520;-79
2021/06/08 10:08:00;;;;;;;3.83;1.40;;;;;;;19.51;45.07;101996.84;5046148;28;20092;-80
2021/06/08 10:10:27;;;;;;;1.50;1.40;;;;;;;19.58;45.37;102003.34;5045136;28;20401;-79
2021/06/08 10:13:02;;;;;;;3.20;1.38;;;;;;;19.67;45.65;102001.56;5024213;28;20022;-79
2021/06/08 10:15:51;;;;;;;2.50;1.60;;;;;;;19.67;45.50;102004.28;5045854;28;20029;-79
2021/06/08 10:18:17;;;;;;;3.13;1.50;;;;;;;19.69;45.66;101994.06;5046338;28;20421;-79
2021/06/08 10:20:51;;;;;;;4.30;1.75;;;;;;;19.72;45.04;102000.03;5028220;28;20031;-78
2021/06/08 10:23:28;;;;;;;6.93;1.50;;;;;;;19.80;44.78;101999.19;5045871;28;20047;-79
2021/06/08 10:25:57;;;;;;;3.92;1.50;;;;;;;19.83;45.80;102000.75;5045019;28;20033;-79
2021/06/08 10:28:24;;;;;;;2.47;1.60;;;;;;;19.83;45.11;102004.31;5045285;28;20021;-79
2021/06/08 10:30:51;;;;;;;1.60;1.50;;;;;;;19.86;43.81;102005.88;5045481;28;20025;-79
2021/06/08 10:33:21;;;;;;;2.17;1.55;;;;;;;19.91;44.25;102003.50;5046565;28;20056;-80
2021/06/08 10:35:48;;;;;;;3.28;1.33;;;;;;;19.97;42.57;101994.66;5035081;28;20076;-80
2021/06/08 10:38:13;;;;;;;2.50;1.50;;;;;;;19.94;43.22;101990.38;5052094;28;20028;-79
2021/06/08 10:40:41;;;;;;;2.75;1.40;;;;;;;20.04;43.72;101992.09;5030143;28;20032;-79
2021/06/08 10:43:14;;;;;;;2.50;1.27;;;;;;;20.06;43.29;101990.91;5048085;28;20437;-79
2021/06/08 10:45:40;;;;;;;1.10;1.00;;;;;;;20.09;42.02;101998.78;5028771;28;20028;-79
2021/06/08 10:48:20;;;;;;;2.70;0.93;;;;;;;20.22;40.24;101992.81;5053136;28;20045;-79
2021/06/08 10:50:49;;;;;;;1.17;0.80;;;;;;;20.38;37.07;101986.50;5035260;28;20032;-79
2021/06/08 10:53:29;;;;;;;1.20;0.90;;;;;;;20.51;39.02;101992.34;5022358;28;20033;-79
2021/06/08 10:55:56;;;;;;;1.30;1.00;;;;;;;20.49;38.85;101993.53;5051318;28;20036;-79
2021/06/08 10:58:50;;;;;;;0.80;0.80;;;;;;;20.54;38.46;101994.75;5033239;28;20354;-79
2021/06/08 11:01:35;;;;;;;2.30;1.05;;;;;;;20.50;38.06;101987.88;5048041;28;20459;-79
2021/06/08 11:04:06;;;;;;;1.42;0.88;;;;;;;20.57;38.44;101990.81;5050538;28;20025;-79
2021/06/08 11:06:58;;;;;;;1.40;1.00;;;;;;;20.71;40.58;101983.81;5033599;28;20074;-79
2021/06/08 11:09:23;;;;;;;2.03;1.58;;;;;;;20.73;39.81;101989.97;5029300;28;20061;-79
2021/06/08 11:11:49;;;;;;;1.50;1.20;;;;;;;20.72;40.93;101988.25;5031732;28;20060;-79
2021/06/08 11:14:29;;;;;;;1.05;1.00;;;;;;;20.75;40.42;101990.63;5021930;28;20480;-79
2021/06/08 11:17:00;;;;;;;3.78;1.30;;;;;;;20.78;40.54;101991.13;5044992;28;20036;-79
2021/06/08 11:19:40;;;;;;;1.80;1.10;;;;;;;20.76;39.58;101984.16;5048796;28;20087;-79
2021/06/08 11:22:06;;;;;;;3.38;1.27;;;;;;;20.88;39.54;101982.78;5049299;28;20036;-79
2021/06/08 11:24:39;;;;;;;2.33;1.10;;;;;;;20.96;39.29;101980.00;5048518;28;20045;-79